Time;durP1;ratioP1;P1;durP2;ratioP2;P2;SDS_P1;SDS_P2;PMS_P1;PMS_P2;Temp;Humidity;BMP_temperature;BMP_pressure;BME280_temperature;BME280_humidity;BME280_pressure;Samples;Min_cycle;Max_cycle;Signal;HPM_P1;HPM_P2
2021/11/15 00:00:11;;;;;;;3.78;3.58;;;;;;;12.68;72.57;101477.28;4899330;29;20039;-73
2021/11/15 00:02:36;;;;;;;3.55;3.25;;;;;;;12.66;72.64;101468.50;4907882;29;20230;-74
2021/11/15 00:05:03;;;;;;;3.60;3.30;;;;;;;12.67;72.73;101469.31;4913278;29;20118;-73
2021/11/15 00:07:28;;;;;;;2.72;2.63;;;;;;;12.64;72.29;101462.41;4909922;29;20027;-74
2021/11/15 00:09:53;;;;;;;3.72;3.53;;;;;;;12.72;72.54;101475.69;4917518;29;20028;-74
2021/11/15 00:12:29;;;;;;;2.63;2.53;;;;;;;12.65;72.18;101455.84;4914000;29;20110;-74
2021/11/15 00:14:54;;;;;;;2.50;2.40;;;;;;;12.61;72.13;101454.69;4890325;29;20156;-74
2021/11/15 00:17:20;;;;;;;2.85;2.72;;;;;;;12.61;72.64;101451.94;4900912;29;20139;-74
2021/11/15 00:19:50;;;;;;;3.28;3.08;;;;;;;12.69;72.42;101478.13;4907442;29;20036;-75
2021/11/15 00:22:15;;;;;;;2.67;2.50;;;;;;;12.66;72.33;101473.97;4897916;29;20100;-74
2021/11/15 00:24:41;;;;;;;2.75;2.63;;;;;;;12.61;72.15;101465.66;4878275;29;20032;-75
2021/11/15 00:27:09;;;;;;;3.08;2.78;;;;;;;12.63;72.49;101474.50;4890211;29;20036;-73
2021/11/15 00:29:34;;;;;;;4.03;3.83;;;;;;;12.62;72.81;101472.81;4902129;29;20095;-74
2021/11/15 00:32:03;;;;;;;3.47;3.28;;;;;;;12.57;72.12;101464.50;4913247;29;20107;-74
2021/11/15 00:34:28;;;;;;;3.80;3.45;;;;;;;12.56;72.55;101458.19;4909964;29;20619;-74
2021/11/15 00:37:03;;;;;;;4.00;3.70;;;;;;;12.57;72.45;101453.53;4906928;29;20116;-74
2021/11/15 00:39:29;;;;;;;4.40;4.05;;;;;;;12.60;72.10;101468.66;4890645;29;20483;-75
2021/11/15 00:41:54;;;;;;;3.28;3.08;;;;;;;12.61;72.52;101473.91;4906431;29;20047;-73
2021/11/15 00:44:20;;;;;;;3.38;3.17;;;;;;;12.58;72.42;101468.91;4898749;29;20676;-73
2021/11/15 00:46:49;;;;;;;3.20;2.97;;;;;;;12.55;72.60;101472.19;4877442;29;20512;-73
2021/11/15 00:49:20;;;;;;;2.83;2.63;;;;;;;12.37;72.24;101441.22;4902147;29;20112;-73
2021/11/15 00:51:45;;;;;;;3.67;3.47;;;;;;;12.56;72.60;101468.38;4906287;29;20496;-73
2021/11/15 00:54:11;;;;;;;3.97;3.67;;;;;;;12.55;72.14;101466.69;4908979;29;20076;-73
2021/11/15 00:56:36;;;;;;;3.35;3.25;;;;;;;12.45;72.25;101450.09;4902956;29;21958;-73
2021/11/15 00:59:14;;;;;;;4.05;3.85;;;;;;;12.51;72.41;101462.78;4907989;29;20027;-73
2021/11/15 01:01:39;;;;;;;3.55;3.35;;;;;;;12.43;72.93;101446.78;4896112;29;20035;-73
2021/11/15 01:04:08;;;;;;;3.15;3.00;;;;;;;12.36;72.38;101439.56;4890420;29;20115;-74
2021/11/15 01:06:36;;;;;;;2.38;2.28;;;;;;;12.45;72.73;101453.66;4908197;29;20103;-71
2021/11/15 01:09:03;;;;;;;2.92;2.83;;;;;;;12.47;72.46;101447.91;4905297;29;20028;-73
2021/11/15 01:11:29;;;;;;;2.60;2.50;;;;;;;12.39;72.80;101440.97;4877218;29;20055;-72
2021/11/15 01:13:55;;;;;;;2.25;2.15;;;;;;;12.44;72.60;101440.19;4888518;29;20467;-72
2021/11/15 01:16:22;;;;;;;2.63;2.42;;;;;;;12.47;72.47;101440.53;4897228;29;20040;-73
2021/11/15 01:18:50;;;;;;;1.80;1.73;;;;;;;12.46;72.68;101436.13;4900780;29;20423;-73
2021/11/15 01:21:28;;;;;;;;;;;;;;;;;;;;;
2021/11/15 01:24:07;;;;;;;;;;;;;;;;;;;;;
2021/11/15 01:26:33;;;;;;;4.05;3.63;;;;;;;12.58;72.24;101445.06;4897903;29;20020;-73
2021/11/15 01:29:16;;;;;;;2.50;2.40;;;;;;;12.60;72.62;101447.56;4899296;29;20125;-72
2021/11/15 01:31:42;;;;;;;3.50;3.22;;;;;;;12.61;72.34;101446.47;4909468;29;20087;-72
2021/11/15 01:34:20;;;;;;;3.10;2.85;;;;;;;12.51;72.48;101424.38;4921900;29;20024;-72
2021/11/15 01:36:46;;;;;;;2.35;2.25;;;;;;;12.57;72.69;101437.06;4895452;29;20048;-72
2021/11/15 01:39:12;;;;;;;2.10;2.00;;;;;;;12.61;72.16;101438.22;4914894;29;21504;-73
2021/11/15 01:41:40;;;;;;;2.42;2.33;;;;;;;12.59;72.61;101440.41;4903424;29;20055;-75
2021/11/15 01:44:06;;;;;;;3.72;3.35;;;;;;;12.66;72.64;101449.28;4909223;29;20083;-73
2021/11/15 01:46:32;;;;;;;4.30;3.88;;;;;;;12.60;72.07;101442.09;4910879;29;20044;-74
2021/11/15 01:48:59;;;;;;;3.78;3.58;;;;;;;12.63;72.36;101455.28;4921286;29;20032;-74
2021/11/15 01:51:25;;;;;;;5.60;2.65;;;;;;;12.64;72.31;101456.94;4896224;29;20035;-72
2021/11/15 01:53:51;;;;;;;2.28;2.17;;;;;;;12.64;72.73;101447.88;4903509;29;20039;-72
2021/11/15 01:56:16;;;;;;;3.22;2.13;;;;;;;12.63;72.72;101452.53;4908395;29;20075;-74
2021/11/15 01:58:42;;;;;;;4.47;3.35;;;;;;;12.60;72.31;101433.84;4886353;29;20028;-73
2021/11/15 02:01:11;;;;;;;3.42;3.15;;;;;;;12.60;72.55;101442.09;4882965;29;20035;-73
2021/11/15 02:03:37;;;;;;;3.50;3.30;;;;;;;12.63;72.28;101438.81;4895172;29;20029;-73
2021/11/15 02:06:06;;;;;;;2.90;2.80;;;;;;;12.61;72.00;101432.75;4910290;29;20035;-74
2021/11/15 02:08:32;;;;;;;2.78;2.58;;;;;;;12.68;72.76;101438.88;4884208;29;20095;-75
2021/11/15 02:11:00;;;;;;;3.65;3.45;;;;;;;12.60;72.12;101420.13;4886194;29;20539;-74
2021/11/15 02:13:25;;;;;;;2.55;2.45;;;;;;;12.67;72.25;101431.72;4905339;29;20032;-74
2021/11/15 02:15:51;;;;;;;3.30;3.10;;;;;;;12.66;72.21;101427.34;4895721;29;20415;-73
2021/11/15 02:18:17;;;;;;;3.53;3.33;;;;;;;12.60;72.03;101435.75;4890976;29;20040;-73
2021/11/15 02:20:48;;;;;;;3.78;3.58;;;;;;;12.65;72.56;101439.38;4900504;29;20059;-73
2021/11/15 02:23:14;;;;;;;4.00;3.70;;;;;;;12.55;72.22;101423.63;4891225;29;20091;-74
2021/11/15 02:25:40;;;;;;;4.00;3.28;;;;;;;12.59;72.04;101434.94;4900677;29;20709;-73
2021/11/15 02:28:14;;;;;;;3.53;3.22;;;;;;;12.60;72.61;101425.63;4901544;29;20543;-73
2021/11/15 02:31:27;;;;;;;3.55;3.20;;;;;;;12.62;71.91;101420.69;4895796;29;20080;-75
2021/11/15 02:34:00;;;;;;;2.92;2.78;;;;;;;12.60;72.41;101420.13;4902617;29;20024;-75
2021/11/15 02:36:29;;;;;;;3.40;3.13;;;;;;;12.62;72.21;101428.91;4908148;29;20115;-75
2021/11/15 02:38:57;;;;;;;3.58;3.38;;;;;;;12.65;72.06;101439.38;4908792;29;20292;-73
2021/11/15 02:41:24;;;;;;;3.85;3.65;;;;;;;12.56;72.05;101425.28;4909179;29;20115;-73
2021/11/15 02:43:50;;;;;;;3.00;2.90;;;;;;;12.61;72.42;101432.75;4909151;29;20237;-73
2021/11/15 02:46:18;;;;;;;3.53;3.42;;;;;;;12.60;72.29;101435.75;4911966;29;20068;-74
2021/11/15 02:48:44;;;;;;;3.30;3.10;;;;;;;12.59;71.94;101432.19;4894798;29;20123;-75
2021/11/15 02:51:14;;;;;;;3.25;3.05;;;;;;;12.59;72.45;101434.94;4907204;29;20046;-75
2021/11/15 02:53:40;;;;;;;2.45;2.35;;;;;;;12.54;71.94;101432.09;4905733;29;20024;-74
2021/11/15 02:56:06;;;;;;;2.63;2.42;;;;;;;12.53;72.88;101435.94;4916679;29;20155;-74
2021/11/15 02:58:40;;;;;;;2.50;2.35;;;;;;;12.48;72.75;101422.16;4910231;29;20040;-74
2021/11/15 03:01:09;;;;;;;3.22;3.03;;;;;;;12.49;72.36;101429.31;4896748;29;20088;-72
2021/11/15 03:03:35;;;;;;;3.72;2.95;;;;;;;12.46;72.28;101429.81;4913109;29;20023;-72
2021/11/15 03:06:00;;;;;;;3.50;3.30;;;;;;;12.45;72.97;101423.47;4910669;29;20486;-73
2021/11/15 03:08:27;;;;;;;2.72;2.63;;;;;;;12.45;72.55;101418.00;4897961;29;20115;-71
2021/11/15 03:10:58;;;;;;;3.80;3.00;;;;;;;12.47;72.66;101413.09;4886634;29;20066;-74
2021/11/15 03:13:25;;;;;;;3.13;2.97;;;;;;;12.49;72.49;101418.34;4899232;29;20032;-72
2021/11/15 03:15:52;;;;;;;2.90;2.80;;;;;;;12.49;72.54;101418.34;4897700;29;20052;-72
2021/11/15 03:18:44;;;;;;;3.05;2.90;;;;;;;12.47;72.39;101420.47;4899581;29;20055;-71
2021/11/15 03:21:19;;;;;;;2.78;2.67;;;;;;;12.44;72.57;101416.34;4906304;29;20036;-70
2021/11/15 03:23:48;;;;;;;3.10;2.90;;;;;;;12.42;72.89;101417.69;4906829;29;20115;-72
2021/11/15 03:26:16;;;;;;;2.85;2.75;;;;;;;12.37;72.40;101411.03;4909631;29;20035;-73
2021/11/15 03:28:57;;;;;;;;;;;;;;;;;;;;;
2021/11/15 03:31:28;;;;;;;2.85;2.75;;;;;;;12.29;72.64;101418.88;4926948;29;20118;-72
2021/11/15 03:34:00;;;;;;;2.25;2.15;;;;;;;12.30;72.69;101426.84;4925934;29;20095;-73
2021/11/15 03:36:26;;;;;;;1.80;1.73;;;;;;;12.24;72.52;101416.91;4916970;29;20050;-72
2021/11/15 03:38:54;;;;;;;1.40;1.30;;;;;;;12.26;72.99;101425.69;4905354;29;20020;-72
2021/11/15 03:41:35;;;;;;;1.00;1.00;;;;;;;12.27;72.66;101421.06;4903090;29;20467;-72
2021/11/15 03:44:02;;;;;;;1.40;1.40;;;;;;;12.30;72.85;101431.53;4907756;29;20104;-72
2021/11/15 03:46:39;;;;;;;1.45;1.35;;;;;;;12.25;73.26;101424.06;4903352;29;20035;-72
2021/11/15 03:49:14;;;;;;;2.08;1.98;;;;;;;12.29;73.36;101429.84;4911060;29;20028;-73
2021/11/15 03:51:41;;;;;;;1.15;1.08;;;;;;;12.21;72.95;101425.63;4915424;29;20035;-72
2021/11/15 03:54:06;;;;;;;1.17;1.17;;;;;;;12.19;72.96;101419.56;4916700;29;20035;-73
2021/11/15 03:56:32;;;;;;;1.10;1.10;;;;;;;12.23;73.34;101431.69;4916865;29;20040;-73
2021/11/15 03:58:59;;;;;;;0.60;0.60;;;;;;;12.26;73.26;101441.34;4894752;29;20040;-74
2021/11/15 04:01:44;;;;;;;;;;;;;;;;;;;;;
2021/11/15 04:04:16;;;;;;;3.22;3.00;;;;;;;12.23;73.23;101423.47;4904764;29;20035;-73
2021/11/15 04:06:49;;;;;;;3.17;2.97;;;;;;;12.14;73.31;101416.75;4894684;29;20029;-72
2021/11/15 04:09:18;;;;;;;2.50;2.40;;;;;;;12.11;72.97;101411.78;4894642;29;20028;-72
2021/11/15 04:11:45;;;;;;;2.25;2.15;;;;;;;12.08;72.96;101410.38;4892606;29;20032;-73
2021/11/15 04:14:13;;;;;;;2.20;2.10;;;;;;;12.09;72.84;101419.41;4893028;29;20581;-71
2021/11/15 04:16:40;;;;;;;2.42;2.33;;;;;;;12.05;73.05;101419.09;4914357;29;20032;-72
2021/11/15 04:19:11;;;;;;;1.35;1.30;;;;;;;12.10;73.01;101427.38;4895601;29;20088;-72
2021/11/15 04:21:39;;;;;;;1.88;1.77;;;;;;;11.96;73.40;101405.00;4910245;29;20026;-72
2021/11/15 04:24:06;;;;;;;1.88;1.77;;;;;;;12.04;73.58;101415.50;4906334;29;20032;-73
2021/11/15 04:26:32;;;;;;;3.63;3.42;;;;;;;12.11;73.08;101425.50;4910049;29;20020;-74
2021/11/15 04:29:01;;;;;;;2.85;2.63;;;;;;;11.99;73.34;101404.50;4916916;29;20028;-73
2021/11/15 04:31:26;;;;;;;1.70;1.60;;;;;;;12.01;73.67;101424.25;4910527;29;20030;-73
2021/11/15 04:33:53;;;;;;;2.63;2.53;;;;;;;12.02;73.31;101425.91;4898255;29;20391;-73
2021/11/15 04:36:26;;;;;;;2.00;1.90;;;;;;;12.00;73.49;101419.88;4913005;29;20040;-74
2021/11/15 04:38:52;;;;;;;2.65;2.53;;;;;;;11.94;73.53;101407.13;4902923;29;20043;-73
2021/11/15 04:41:21;;;;;;;2.00;1.90;;;;;;;11.97;72.95;101412.16;4897025;29;20388;-72
2021/11/15 04:43:48;;;;;;;1.58;1.48;;;;;;;11.91;73.02;101406.78;4908873;29;20052;-73
2021/11/15 04:46:13;;;;;;;2.03;1.92;;;;;;;11.94;73.17;101423.59;4900661;29;20031;-72
2021/11/15 04:48:39;;;;;;;1.55;1.45;;;;;;;11.95;73.59;101419.78;4887740;29;20032;-74
2021/11/15 04:51:07;;;;;;;1.55;1.45;;;;;;;11.99;73.50;101436.56;4902801;29;20090;-74
2021/11/15 04:53:33;;;;;;;2.08;1.98;;;;;;;11.91;73.72;101413.09;4910227;29;20046;-73
2021/11/15 04:56:07;;;;;;;1.00;1.00;;;;;;;12.01;73.25;101431.66;4896502;29;20036;-74
2021/11/15 04:58:35;;;;;;;2.05;1.95;;;;;;;11.98;73.47;101427.50;4914630;29;20083;-74
2021/11/15 05:01:01;;;;;;;2.08;1.98;;;;;;;12.01;72.96;101429.72;4921090;29;20019;-73
2021/11/15 05:03:27;;;;;;;3.42;3.22;;;;;;;11.93;73.50;101419.19;4892749;29;20055;-73
2021/11/15 05:05:55;;;;;;;2.83;2.72;;;;;;;12.00;73.47;101433.56;4904713;29;20039;-73
2021/11/15 05:08:20;;;;;;;2.47;2.38;;;;;;;11.89;73.19;101420.75;4898987;29;20455;-73
2021/11/15 05:11:59;;;;;;;2.60;2.45;;;;;;;11.94;73.80;101420.84;4910660;29;20036;-73
2021/11/15 05:14:24;;;;;;;1.70;1.60;;;;;;;11.90;73.16;101427.91;4877909;29;20770;-72
2021/11/15 05:16:50;;;;;;;1.25;1.23;;;;;;;11.90;73.29;101432.53;4908854;29;20110;-74
2021/11/15 05:22:30;;;;;;;1.00;1.00;;;;;;;11.83;73.63;101429.97;4898136;29;20081;-76
2021/11/15 05:25:14;;;;;;;1.38;1.27;;;;;;;11.77;73.64;101412.63;4895301;29;20707;-71
2021/11/15 05:27:48;;;;;;;2.00;1.90;;;;;;;11.84;73.66;101431.63;4904374;29;20565;-71
2021/11/15 05:30:19;;;;;;;3.83;3.33;;;;;;;11.76;74.02;101419.19;4894989;29;20171;-71
2021/11/15 05:32:46;;;;;;;2.50;2.40;;;;;;;11.85;73.42;101436.03;4912375;29;20036;-72
2021/11/15 05:35:12;;;;;;;2.80;2.70;;;;;;;11.91;73.03;101440.50;4914037;29;20028;-73
2021/11/15 05:37:38;;;;;;;2.75;2.55;;;;;;;11.84;73.45;101428.88;4906737;29;20627;-71
2021/11/15 05:40:05;;;;;;;2.50;2.40;;;;;;;11.94;73.74;101450.16;4904947;29;20379;-72
2021/11/15 05:42:30;;;;;;;2.08;1.98;;;;;;;11.88;73.19;101441.00;4898168;29;20055;-72
2021/11/15 05:44:56;;;;;;;2.90;2.80;;;;;;;11.90;73.37;101438.88;4904629;29;20051;-72
2021/11/15 05:47:22;;;;;;;3.40;3.20;;;;;;;11.88;73.90;101449.22;4911325;29;20095;-72
2021/11/15 05:49:47;;;;;;;2.28;2.17;;;;;;;11.86;73.78;101445.91;4906829;29;20040;-72
2021/11/15 05:52:14;;;;;;;1.90;1.80;;;;;;;11.86;73.66;101459.63;4902828;29;20036;-70
2021/11/15 05:54:44;;;;;;;2.30;2.20;;;;;;;11.86;74.00;101459.63;4902009;29;20035;-72
2021/11/15 05:57:10;;;;;;;5.68;4.93;;;;;;;11.84;73.85;101467.25;4909279;29;20028;-71
2021/11/15 05:59:38;;;;;;;4.60;4.40;;;;;;;11.73;73.30;101452.56;4905346;29;20131;-72
2021/11/15 06:02:04;;;;;;;4.10;3.78;;;;;;;11.68;73.69;101450.56;4909090;29;20393;-70
2021/11/15 06:04:29;;;;;;;2.60;2.50;;;;;;;11.82;73.37;101463.94;4911164;29;20028;-71
2021/11/15 06:06:59;;;;;;;4.15;3.55;;;;;;;11.69;73.46;101444.00;4911412;29;20873;-72
2021/11/15 06:09:25;;;;;;;2.88;2.78;;;;;;;11.73;73.55;101454.47;4899435;29;20701;-72
2021/11/15 06:11:50;;;;;;;3.25;3.05;;;;;;;11.76;73.55;101467.69;4901149;29;20107;-72
2021/11/15 06:14:16;;;;;;;2.33;2.22;;;;;;;11.77;73.82;101461.94;4884153;29;20028;-70
2021/11/15 06:16:41;;;;;;;2.20;2.10;;;;;;;11.79;73.58;101470.75;4897946;29;20092;-70
2021/11/15 06:19:10;;;;;;;3.10;2.90;;;;;;;11.69;73.69;101454.94;4894690;29;20399;-71
2021/11/15 06:21:40;;;;;;;3.65;3.45;;;;;;;11.78;73.92;101457.28;4908336;29;20120;-70
2021/11/15 06:24:06;;;;;;;4.60;4.30;;;;;;;11.72;73.92;101450.88;4896698;29;20502;-72
2021/11/15 06:26:32;;;;;;;4.28;3.97;;;;;;;11.73;73.41;101455.28;4905212;29;20020;-71
2021/11/15 06:29:02;;;;;;;5.22;4.72;;;;;;;11.66;74.03;101444.50;4874226;29;20042;-70
2021/11/15 06:31:35;;;;;;;5.10;4.75;;;;;;;11.81;73.46;101462.25;4895291;29;20486;-69
2021/11/15 06:34:02;;;;;;;5.32;5.03;;;;;;;11.79;73.92;101448.81;4888085;29;20422;-70
2021/11/15 06:36:42;;;;;;;4.88;4.57;;;;;;;11.88;73.19;101468.41;4908438;29;20032;-70
2021/11/15 06:39:10;;;;;;;6.50;5.90;;;;;;;11.84;73.45;101456.28;4917092;29;20062;-71
2021/11/15 06:41:38;;;;;;;5.53;5.22;;;;;;;11.85;73.36;101456.03;4908558;29;20032;-71
2021/11/15 06:44:07;;;;;;;5.95;5.65;;;;;;;11.88;73.58;101454.72;4894616;29;20064;-69
2021/11/15 06:46:33;;;;;;;6.93;6.28;;;;;;;11.83;73.81;101451.91;4911468;29;20395;-70
2021/11/15 06:49:01;;;;;;;6.97;6.45;;;;;;;11.81;73.24;101445.81;4909335;29;20039;-71
2021/11/15 06:51:28;;;;;;;9.48;7.57;;;;;;;11.91;73.24;101467.91;4910602;29;20043;-70
2021/11/15 06:53:54;;;;;;;8.27;7.57;;;;;;;11.89;73.75;101470.09;4910036;29;20027;-69
2021/11/15 06:56:19;;;;;;;6.10;5.65;;;;;;;11.87;73.15;101473.06;4911473;29;20096;-70
2021/11/15 06:58:45;;;;;;;7.60;6.43;;;;;;;11.85;73.21;101468.91;4915132;29;20064;-69
2021/11/15 07:01:11;;;;;;;6.00;5.63;;;;;;;11.85;73.89;101474.41;4898283;29;20056;-69
2021/11/15 07:03:47;;;;;;;5.88;5.47;;;;;;;11.86;73.33;101470.59;4906923;29;20059;-71
2021/11/15 07:06:15;;;;;;;4.97;4.72;;;;;;;11.74;73.79;101456.97;4905215;29;20171;-71
2021/11/15 07:08:40;;;;;;;4.95;4.47;;;;;;;11.76;73.84;101464.94;4907379;29;20092;-70
2021/11/15 07:11:06;;;;;;;4.47;4.22;;;;;;;11.77;73.43;101463.84;4895203;29;20024;-72
2021/11/15 07:13:32;;;;;;;5.70;5.30;;;;;;;11.85;73.45;101480.69;4909568;29;20070;-74
2021/11/15 07:15:57;;;;;;;5.38;5.07;;;;;;;11.82;74.09;101478.47;4892459;29;20119;-74
2021/11/15 07:18:28;;;;;;;4.60;4.30;;;;;;;11.77;73.77;101477.53;4914079;29;20039;-73
2021/11/15 07:20:57;;;;;;;3.53;3.35;;;;;;;11.82;73.90;101494.09;4915049;29;20039;-73
2021/11/15 07:23:23;;;;;;;3.42;3.22;;;;;;;11.78;73.83;101484.69;4913338;29;20435;-75
2021/11/15 07:25:49;;;;;;;3.38;3.17;;;;;;;11.82;73.79;101491.34;4882192;29;20043;-75
2021/11/15 07:28:17;;;;;;;2.75;2.55;;;;;;;11.79;74.17;101491.84;4903057;29;20039;-73
2021/11/15 07:30:44;;;;;;;2.42;2.33;;;;;;;11.84;73.87;101500.13;4915184;29;20502;-73
2021/11/15 07:33:10;;;;;;;2.55;2.45;;;;;;;11.84;73.74;101491.91;4915958;29;20082;-71
2021/11/15 07:35:36;;;;;;;2.83;2.28;;;;;;;11.80;73.97;101496.25;4917291;29;20395;-72
2021/11/15 07:38:03;;;;;;;2.38;2.28;;;;;;;11.81;74.30;101496.00;4917060;29;20032;-73
2021/11/15 07:40:28;;;;;;;1.75;1.65;;;;;;;11.79;73.90;101492.66;4911002;29;20060;-72
2021/11/15 07:42:54;;;;;;;1.33;1.23;;;;;;;11.77;73.99;101489.34;4905200;29;20095;-74
2021/11/15 07:45:20;;;;;;;2.65;2.55;;;;;;;11.83;73.70;101503.97;4906522;29;20028;-70
2021/11/15 07:47:46;;;;;;;2.53;2.42;;;;;;;11.86;73.92;101503.47;4903301;29;20127;-73
2021/11/15 07:50:13;;;;;;;3.17;2.97;;;;;;;11.86;74.12;101498.81;4910452;29;20118;-73
2021/11/15 07:52:39;;;;;;;2.00;1.90;;;;;;;11.89;74.12;101497.50;4913624;29;20068;-71
2021/11/15 07:55:07;;;;;;;1.85;1.75;;;;;;;11.90;74.21;101504.66;4912414;29;20886;-72
2021/11/15 07:57:33;;;;;;;2.53;1.98;;;;;;;11.93;74.35;101503.28;4911669;29;20016;-74
2021/11/15 07:59:59;;;;;;;1.67;1.58;;;;;;;11.93;74.05;101504.19;4912941;29;20034;-75
2021/11/15 08:02:25;;;;;;;2.28;2.05;;;;;;;11.97;73.79;101521.78;4915249;29;20439;-79
2021/11/15 08:04:50;;;;;;;3.38;3.20;;;;;;;11.99;74.21;101518.81;4894842;29;20096;-79
2021/11/15 08:07:16;;;;;;;2.80;2.70;;;;;;;11.93;73.85;101504.19;4907690;29;20032;-77
2021/11/15 08:09:42;;;;;;;2.25;2.15;;;;;;;12.04;74.00;101505.97;4904050;29;20028;-76
2021/11/15 08:12:19;;;;;;;2.17;2.08;;;;;;;11.97;73.55;101494.38;4912621;29;20103;-77
2021/11/15 08:14:55;;;;;;;1.20;1.20;;;;;;;12.03;73.40;101498.00;4902543;29;20031;-76
2021/11/15 08:17:30;;;;;;;1.08;1.08;;;;;;;12.19;73.48;101510.91;4894643;29;20032;-75
2021/11/15 08:20:05;;;;;;;;;;;;;;;;;;;;;
2021/11/15 08:22:39;;;;;;;0.70;0.70;;;;;;;12.26;73.45;101497.00;4900469;29;20273;-77
2021/11/15 08:25:56;;;;;;;;;;;;;;;;;;;;;
2021/11/15 08:28:25;;;;;;;0.70;0.70;;;;;;;12.40;72.95;101492.00;4909487;29;20063;-77
2021/11/15 08:30:53;;;;;;;0.77;0.77;;;;;;;12.58;72.96;101510.91;4921462;29;20319;-79
2021/11/15 08:33:19;;;;;;;1.27;1.17;;;;;;;12.57;72.91;101497.44;4932845;29;20016;-77
2021/11/15 08:35:48;;;;;;;1.42;1.33;;;;;;;12.65;72.65;101505.25;4920414;29;20038;-77
2021/11/15 08:38:17;;;;;;;1.77;1.67;;;;;;;12.80;73.36;101509.28;4900911;29;20079;-77
2021/11/15 08:41:05;;;;;;;1.45;1.35;;;;;;;12.90;73.11;101514.91;4914217;29;20126;-78
2021/11/15 08:43:43;;;;;;;2.65;2.55;;;;;;;12.96;72.39;101521.28;4877474;29;20040;-78
2021/11/15 08:46:09;;;;;;;2.45;2.35;;;;;;;13.01;72.83;101527.69;4890162;29;20775;-76
2021/11/15 08:48:38;;;;;;;4.55;4.32;;;;;;;13.08;72.17;101525.56;4890796;29;20021;-75
2021/11/15 08:51:12;;;;;;;3.17;2.97;;;;;;;13.09;72.53;101516.22;4880478;29;20025;-75
2021/11/15 08:53:58;;;;;;;2.47;2.37;;;;;;;13.20;72.66;101519.94;4895973;29;20032;-77
2021/11/15 08:56:34;;;;;;;2.33;2.22;;;;;;;13.15;72.16;101508.06;4880676;29;20027;-77
2021/11/15 08:59:05;;;;;;;2.78;2.67;;;;;;;13.19;72.03;101511.97;4894782;29;20557;-78
2021/11/15 09:01:59;;;;;;;2.10;2.00;;;;;;;13.41;71.73;101533.94;4882083;29;20037;-79
2021/11/15 09:04:36;;;;;;;2.33;2.20;;;;;;;13.26;71.87;101502.44;4879123;29;20033;-80
2021/11/15 09:07:02;;;;;;;2.08;1.98;;;;;;;13.40;71.88;101522.13;4895726;29;20482;-79
2021/11/15 09:09:37;;;;;;;2.55;2.38;;;;;;;13.45;72.15;101524.09;4880899;29;20036;-79
2021/11/15 09:12:05;;;;;;;2.65;2.50;;;;;;;13.49;71.57;101524.41;4864736;29;20033;-77
2021/11/15 09:14:31;;;;;;;3.75;3.55;;;;;;;13.56;71.47;101531.34;4884915;29;20045;-78
2021/11/15 09:16:57;;;;;;;2.88;2.70;;;;;;;13.64;71.08;101537.44;4885740;29;20127;-77
2021/11/15 09:19:22;;;;;;;3.05;2.85;;;;;;;13.65;71.08;101536.38;4884721;29;20056;-78
2021/11/15 09:21:48;;;;;;;2.58;2.38;;;;;;;13.71;71.16;101533.44;4866305;29;20040;-79
2021/11/15 09:24:15;;;;;;;2.17;2.08;;;;;;;13.79;71.00;101529.38;4888412;29;20036;-81
2021/11/15 09:26:41;;;;;;;2.30;2.20;;;;;;;13.89;71.27;101525.91;4886943;29;20560;-81
2021/11/15 09:29:07;;;;;;;2.15;2.05;;;;;;;13.94;70.88;101523.16;4882862;29;20076;-82
2021/11/15 09:31:34;;;;;;;3.17;3.08;;;;;;;14.02;70.29;101533.69;4880333;29;20029;-83
2021/11/15 09:34:00;;;;;;;2.80;2.70;;;;;;;14.10;70.19;101537.88;4862307;29;20025;-81
2021/11/15 09:36:25;;;;;;;3.10;2.90;;;;;;;14.12;70.19;101533.78;4871027;29;20713;-80
2021/11/15 09:38:53;;;;;;;2.38;2.28;;;;;;;14.20;70.38;101534.38;4871619;29;20036;-80
2021/11/15 09:41:19;;;;;;;2.50;2.40;;;;;;;14.25;70.03;101529.75;4881889;29;20120;-79
2021/11/15 09:43:45;;;;;;;2.13;2.03;;;;;;;14.32;69.87;101532.25;4900381;29;20075;-81
2021/11/15 09:46:13;;;;;;;1.92;1.83;;;;;;;14.42;69.92;101535.09;4897938;29;20031;-80
2021/11/15 09:48:44;;;;;;;2.30;2.20;;;;;;;14.48;69.63;101524.94;4916645;29;20080;-79
2021/11/15 09:51:10;;;;;;;2.40;2.20;;;;;;;14.51;69.57;101521.66;4905232;29;20111;-79
2021/11/15 09:53:36;;;;;;;4.00;3.70;;;;;;;14.57;69.44;101539.03;4898383;29;20039;-78
2021/11/15 09:56:04;;;;;;;2.78;2.65;;;;;;;14.61;69.38;101534.66;4910378;29;20031;-78
2021/11/15 09:58:30;;;;;;;2.30;2.20;;;;;;;14.66;69.08;101532.00;4900640;29;20033;-80
2021/11/15 10:00:57;;;;;;;3.15;2.63;;;;;;;14.74;69.31;101523.19;4900015;29;20036;-80
2021/11/15 10:03:25;;;;;;;1.85;1.75;;;;;;;14.85;68.82;101526.84;4907871;29;20025;-80
2021/11/15 10:05:51;;;;;;;2.88;2.78;;;;;;;14.95;68.56;101534.31;4909312;29;20031;-78
2021/11/15 10:08:17;;;;;;;5.88;5.47;;;;;;;15.00;68.45;101528.84;4907831;29;20395;-80
2021/11/15 10:10:44;;;;;;;6.90;6.07;;;;;;;15.06;67.51;101533.28;4909233;29;20991;-79
2021/11/15 10:13:15;;;;;;;4.07;3.88;;;;;;;15.11;68.16;101538.81;4911491;29;20482;-81
2021/11/15 10:15:59;;;;;;;2.85;2.72;;;;;;;15.25;67.74;101539.13;4910010;29;20094;-84
2021/11/15 10:18:52;;;;;;;4.70;3.88;;;;;;;15.32;67.61;101544.41;4905579;29;20055;-80
2021/11/15 10:21:19;;;;;;;3.75;3.55;;;;;;;15.37;67.15;101549.91;4902775;29;20452;-77
2021/11/15 10:23:53;;;;;;;3.35;3.25;;;;;;;15.43;67.15;101548.81;4901123;29;20704;-79
2021/11/15 10:26:28;;;;;;;2.35;2.25;;;;;;;15.52;66.92;101538.94;4904525;29;20363;-79
2021/11/15 10:29:04;;;;;;;3.70;3.40;;;;;;;15.60;66.68;101545.00;4903419;29;20152;-77
2021/11/15 10:31:40;;;;;;;2.47;2.38;;;;;;;15.66;66.91;101541.16;4903565;29;20024;-78
2021/11/15 10:34:10;;;;;;;3.22;3.03;;;;;;;15.80;66.83;101545.06;4905629;29;20111;-78
2021/11/15 10:36:46;;;;;;;2.35;2.25;;;;;;;15.95;66.77;101548.97;4882320;29;20774;-77
2021/11/15 10:39:12;;;;;;;2.90;2.67;;;;;;;15.98;66.20;101535.44;4893565;29;20028;-77
2021/11/15 10:41:42;;;;;;;1.90;1.80;;;;;;;16.13;65.96;101537.34;4902749;29;20051;-80
2021/11/15 10:44:12;;;;;;;2.42;2.33;;;;;;;16.19;65.89;101530.75;4893576;29;20071;-78
2021/11/15 10:46:39;;;;;;;2.53;2.33;;;;;;;16.33;65.68;101535.69;4888808;29;21058;-78
2021/11/15 10:49:18;;;;;;;2.88;2.78;;;;;;;16.28;65.36;101527.41;4887747;29;20052;-77
2021/11/15 10:52:09;;;;;;;;;;;;;;;;;;;;;
2021/11/15 10:54:55;;;;;;;1.80;1.70;;;;;;;16.40;65.01;101536.25;4908051;29;20016;-73
2021/11/15 10:57:40;;;;;;;1.60;1.50;;;;;;;16.44;64.66;101547.53;4898796;29;20030;-81
2021/11/15 11:00:10;;;;;;;3.97;3.78;;;;;;;16.47;63.78;101547.81;4922108;29;20040;-73
2021/11/15 11:02:45;;;;;;;3.45;3.25;;;;;;;16.46;64.22;101537.06;4912052;29;20024;-72
2021/11/15 11:05:11;;;;;;;;;;;;;;;16.56;63.94;101537.88;4913567;29;20499;-74
2021/11/15 11:07:37;;;;;;;;;;;;;;;16.64;63.81;101530.13;4904221;29;19917;-74
2021/11/15 11:10:05;;;;;;;2.17;2.05;;;;;;;16.64;63.61;101524.59;4909859;29;20005;-75
2021/11/15 11:12:35;;;;;;;1.88;1.77;;;;;;;16.68;63.54;101526.50;4899950;29;20507;-75
2021/11/15 11:15:35;;;;;;;0.77;0.77;;;;;;;16.79;63.99;101537.53;4926817;29;20023;-75
2021/11/15 11:18:25;;;;;;;2.10;1.90;;;;;;;16.81;63.08;101541.66;4911921;29;20032;-75
2021/11/15 11:26:27;;;;;;;1.80;1.70;;;;;;;16.91;63.18;101522.31;4910486;29;19970;-77
2021/11/15 11:28:58;;;;;;;2.00;1.90;;;;;;;16.99;62.66;101522.84;4908819;29;20047;-77
2021/11/15 11:31:32;;;;;;;2.20;2.10;;;;;;;17.15;62.89;101524.44;4891338;29;20020;-77
2021/11/15 11:33:59;;;;;;;2.08;1.98;;;;;;;17.19;62.51;101519.19;4907471;29;20028;-78
2021/11/15 11:36:25;;;;;;;5.03;3.35;;;;;;;17.37;61.56;101525.97;4889887;29;20026;-76
2021/11/15 11:38:52;;;;;;;4.05;3.75;;;;;;;17.42;61.17;101525.94;4897795;29;20036;-74
2021/11/15 11:41:39;;;;;;;4.20;3.90;;;;;;;17.45;61.12;101511.56;4896042;29;20032;-78
2021/11/15 11:44:08;;;;;;;4.80;4.50;;;;;;;17.47;60.51;101520.38;4910617;29;20072;-77
2021/11/15 11:46:36;;;;;;;3.40;3.20;;;;;;;17.56;60.52;101517.84;4886091;29;20119;-78
2021/11/15 11:49:09;;;;;;;3.00;2.80;;;;;;;17.83;60.91;101516.53;4914658;29;20028;-78
2021/11/15 11:51:41;;;;;;;2.90;2.70;;;;;;;18.21;60.14;101511.25;4903774;29;20059;-77
2021/11/15 11:54:09;;;;;;;4.45;2.30;;;;;;;18.77;60.02;101518.16;4907785;29;20027;-76